createdAt,value
2022-11-15T00:01:46.286Z,8.30
2022-11-15T00:05:49.940Z,8.20
2022-11-15T00:09:54.886Z,8.20
2022-11-15T00:13:58.476Z,8.20
2022-11-15T00:18:02.019Z,8.10
2022-11-15T00:22:05.511Z,8.10
2022-11-15T00:26:14.958Z,8.10
2022-11-15T00:30:18.673Z,8.00
2022-11-15T00:34:22.197Z,7.90
2022-11-15T00:38:25.694Z,8.00
2022-11-15T00:42:30.618Z,7.90
2022-11-15T00:46:34.036Z,7.90
2022-11-15T00:50:37.510Z,7.90
2022-11-15T00:54:40.961Z,7.80
2022-11-15T00:58:45.844Z,7.80
2022-11-15T01:02:49.132Z,7.80
2022-11-15T01:06:52.752Z,7.80
2022-11-15T01:10:56.229Z,7.80
2022-11-15T01:15:01.025Z,7.80
2022-11-15T01:19:04.831Z,7.70
2022-11-15T01:23:09.422Z,7.70
2022-11-15T01:27:12.947Z,7.60
2022-11-15T01:31:19.678Z,7.70
2022-11-15T01:35:23.027Z,7.80
2022-11-15T01:39:26.427Z,7.90
2022-11-15T01:43:31.938Z,7.90
2022-11-15T01:47:40.919Z,7.80
2022-11-15T01:51:44.231Z,7.90
2022-11-15T01:55:47.694Z,7.90
2022-11-15T01:59:50.974Z,7.90
2022-11-15T02:04:01.150Z,7.90
2022-11-15T02:08:04.582Z,7.90
2022-11-15T02:12:10.226Z,7.80
2022-11-15T02:16:20.685Z,7.80
2022-11-15T02:20:59.235Z,7.80
2022-11-15T02:25:30.649Z,7.70
2022-11-15T02:29:50.095Z,7.80
2022-11-15T02:34:02.277Z,7.80
2022-11-15T02:38:12.472Z,7.80
2022-11-15T02:42:39.251Z,7.80
2022-11-15T02:47:05.157Z,7.70
2022-11-15T02:51:10.561Z,7.70
2022-11-15T02:55:29.514Z,7.70
2022-11-15T02:59:58.752Z,7.60
2022-11-15T03:04:19.785Z,7.50
2022-11-15T03:08:31.482Z,7.50
2022-11-15T03:12:43.065Z,7.50
2022-11-15T03:16:51.510Z,7.60
2022-11-15T03:20:55.644Z,7.60
2022-11-15T03:25:06.402Z,7.50
2022-11-15T03:29:15.726Z,7.50
2022-11-15T03:33:20.791Z,7.50
2022-11-15T03:37:29.747Z,7.40
2022-11-15T03:41:48.620Z,7.30
2022-11-15T03:45:56.059Z,7.30
2022-11-15T03:50:03.592Z,7.30
2022-11-15T03:54:07.270Z,7.30
2022-11-15T03:58:12.265Z,7.20
2022-11-15T04:02:16.131Z,7.20
2022-11-15T04:06:19.479Z,7.30
2022-11-15T04:10:22.768Z,7.30
2022-11-15T04:14:27.464Z,7.20
2022-11-15T04:18:30.749Z,7.20
2022-11-15T04:22:51.402Z,7.30
2022-11-15T04:26:54.694Z,7.30
2022-11-15T04:30:59.479Z,7.30
2022-11-15T04:35:02.839Z,7.30
2022-11-15T04:39:06.185Z,7.30
2022-11-15T04:43:09.457Z,7.30
2022-11-15T04:47:14.785Z,7.40
2022-11-15T04:51:18.109Z,7.40
2022-11-15T04:55:22.032Z,7.30
2022-11-15T04:59:25.273Z,7.30
2022-11-15T05:03:47.419Z,7.40
2022-11-15T05:07:50.678Z,7.40
2022-11-15T05:11:54.007Z,7.40
2022-11-15T05:15:57.275Z,7.40
2022-11-15T05:20:01.985Z,7.30
2022-11-15T05:24:06.096Z,7.30
2022-11-15T05:28:09.537Z,7.30
2022-11-15T05:32:14.899Z,7.20
2022-11-15T05:36:23.793Z,7.30
2022-11-15T05:40:27.568Z,7.40
2022-11-15T05:44:31.045Z,7.40
2022-11-15T05:48:36.153Z,7.40
2022-11-15T05:52:40.994Z,7.40
2022-11-15T05:56:44.869Z,7.30
2022-11-15T06:00:48.282Z,7.30
2022-11-15T06:04:51.589Z,7.40
2022-11-15T06:08:56.396Z,7.30
2022-11-15T06:13:00.329Z,7.30
2022-11-15T06:17:08.582Z,7.30
2022-11-15T06:21:14.492Z,7.30
2022-11-15T06:25:19.304Z,7.30
2022-11-15T06:29:22.765Z,7.30
2022-11-15T06:33:26.299Z,7.20
2022-11-15T06:37:29.612Z,7.30
2022-11-15T06:41:36.882Z,7.30
2022-11-15T06:45:40.667Z,7.30
2022-11-15T06:49:44.206Z,7.40
2022-11-15T06:53:48.558Z,7.50
2022-11-15T06:57:54.735Z,7.50
2022-11-15T07:01:57.990Z,7.60
2022-11-15T07:06:06.760Z,7.50
2022-11-15T07:10:11.372Z,7.50
2022-11-15T07:14:16.040Z,7.50
2022-11-15T07:18:19.301Z,7.50
2022-11-15T07:22:22.629Z,7.60
2022-11-15T07:26:25.908Z,7.70
2022-11-15T07:30:31.548Z,7.70
2022-11-15T07:34:34.786Z,7.70
2022-11-15T07:38:42.589Z,7.70
2022-11-15T07:42:55.141Z,7.60
2022-11-15T07:46:59.955Z,7.70
2022-11-15T07:51:03.388Z,7.90
2022-11-15T07:55:07.791Z,7.90
2022-11-15T07:59:11.103Z,7.80
2022-11-15T08:03:17.843Z,8.00
2022-11-15T08:07:21.193Z,8.00
2022-11-15T08:11:24.492Z,8.00
2022-11-15T08:15:28.560Z,8.20
2022-11-15T08:19:33.225Z,8.20
2022-11-15T08:23:36.522Z,8.30
2022-11-15T08:27:39.895Z,8.30
2022-11-15T08:31:43.259Z,8.50
2022-11-15T08:36:20.109Z,8.60
2022-11-15T08:40:24.078Z,8.50
2022-11-15T08:44:27.617Z,8.60
2022-11-15T08:48:32.914Z,8.50
2022-11-15T08:52:38.046Z,8.70
2022-11-15T08:56:41.323Z,8.90
2022-11-15T09:00:44.681Z,9.10
2022-11-15T09:04:48.043Z,9.20
2022-11-15T09:08:52.849Z,9.30
2022-11-15T09:12:56.394Z,9.40
2022-11-15T09:17:00.483Z,9.60
2022-11-15T09:21:04.740Z,9.70
2022-11-15T09:25:11.391Z,9.80
2022-11-15T09:29:14.900Z,9.90
2022-11-15T09:33:18.218Z,9.80
2022-11-15T09:37:21.963Z,9.80
2022-11-15T09:41:53.866Z,9.70
2022-11-15T09:46:09.510Z,9.50
2022-11-15T09:50:14.774Z,9.40
2022-11-15T09:59:00.876Z,9.50
2022-11-15T10:03:14.452Z,9.40
2022-11-15T10:07:20.920Z,9.30
2022-11-15T10:11:42.493Z,9.30
2022-11-15T10:15:49.532Z,9.40
2022-11-15T10:20:06.177Z,9.50
2022-11-15T10:24:14.195Z,9.60
2022-11-15T10:28:19.862Z,9.70
2022-11-15T10:32:24.867Z,9.90
2022-11-15T10:36:29.822Z,10.10
2022-11-15T10:40:33.225Z,10.20
2022-11-15T10:44:46.646Z,10.20
2022-11-15T10:48:51.356Z,9.80
2022-11-15T10:52:55.015Z,9.70
2022-11-15T10:57:00.694Z,9.70
2022-11-15T11:01:18.915Z,9.80
2022-11-15T11:05:37.861Z,10.10
2022-11-15T11:09:44.498Z,10.00
2022-11-15T11:13:47.883Z,9.60
2022-11-15T11:18:03.521Z,9.60
2022-11-15T11:22:18.363Z,9.60
2022-11-15T11:26:37.930Z,9.50
2022-11-15T11:30:50.209Z,9.50
2022-11-15T11:35:03.303Z,9.60
2022-11-15T11:39:26.564Z,9.80
2022-11-15T11:43:39.591Z,9.90
2022-11-15T11:47:48.598Z,10.00
2022-11-15T11:51:57.156Z,10.00
2022-11-15T11:56:06.672Z,10.10
2022-11-15T12:00:19.839Z,10.30
2022-11-15T12:04:29.833Z,10.30
2022-11-15T12:08:42.968Z,10.10
2022-11-15T12:12:56.276Z,10.10
2022-11-15T12:17:00.838Z,10.10
2022-11-15T12:21:09.747Z,10.10
2022-11-15T12:25:20.867Z,10.10
2022-11-15T12:29:30.672Z,9.90
2022-11-15T12:33:40.797Z,9.90
2022-11-15T12:37:53.238Z,9.70
2022-11-15T12:42:26.162Z,9.70
2022-11-15T12:47:07.250Z,9.90
2022-11-15T12:51:10.537Z,9.90
2022-11-15T12:55:35.203Z,9.90
2022-11-15T12:59:52.797Z,9.80
2022-11-15T13:04:27.303Z,9.80
2022-11-15T13:08:49.585Z,9.60
2022-11-15T13:13:00.453Z,9.60
2022-11-15T13:17:04.648Z,9.40
2022-11-15T13:21:40.714Z,9.40
2022-11-15T13:25:58.157Z,9.30
2022-11-15T13:30:15.947Z,9.20
2022-11-15T13:39:01.469Z,9.00
2022-11-15T13:43:28.743Z,9.10
2022-11-15T13:47:32.996Z,9.10
2022-11-15T13:51:42.451Z,9.10
2022-11-15T13:55:47.282Z,9.00
2022-11-15T13:59:54.071Z,8.90
2022-11-15T14:04:00.184Z,8.90
2022-11-15T14:08:05.803Z,8.70
2022-11-15T14:12:32.102Z,8.80
2022-11-15T14:16:37.634Z,8.80
2022-11-15T14:20:41.845Z,8.80
2022-11-15T14:24:46.950Z,8.70
2022-11-15T14:28:51.964Z,8.80
2022-11-15T14:32:55.250Z,8.80
2022-11-15T14:36:58.554Z,8.80
2022-11-15T14:41:01.936Z,8.80
2022-11-15T14:45:14.286Z,8.80
2022-11-15T14:49:17.542Z,8.60
2022-11-15T14:53:21.798Z,8.60
2022-11-15T14:57:25.103Z,8.60
2022-11-15T15:01:29.983Z,8.50
2022-11-15T15:05:35.798Z,8.50
2022-11-15T15:09:39.148Z,8.40
2022-11-15T15:13:42.458Z,8.40
2022-11-15T15:17:47.147Z,8.40
2022-11-15T15:21:50.461Z,8.40
2022-11-15T15:25:54.264Z,8.40
2022-11-15T15:29:57.665Z,8.40
2022-11-15T15:34:02.364Z,8.40
2022-11-15T15:38:06.882Z,8.30
2022-11-15T15:42:10.124Z,8.30
2022-11-15T15:46:15.994Z,8.30
2022-11-15T15:50:24.834Z,8.30
2022-11-15T15:54:28.157Z,8.30
2022-11-15T15:58:35.631Z,8.30
2022-11-15T16:02:40.818Z,8.30
2022-11-15T16:06:56.119Z,8.10
2022-11-15T16:10:59.890Z,8.10
2022-11-15T16:15:04.424Z,8.10
2022-11-15T16:19:08.093Z,8.30
2022-11-15T16:23:24.281Z,8.30
2022-11-15T16:27:28.262Z,8.30
2022-11-15T16:31:31.647Z,8.30
2022-11-15T16:35:35.287Z,8.40
2022-11-15T16:39:40.286Z,8.40
2022-11-15T16:43:48.201Z,8.40
2022-11-15T16:47:52.624Z,8.20
2022-11-15T16:52:04.856Z,8.20
2022-11-15T16:56:21.918Z,8.10
2022-11-15T17:00:27.035Z,8.20
2022-11-15T17:04:34.035Z,8.30
2022-11-15T17:08:37.628Z,8.20
2022-11-15T17:12:42.982Z,8.10
2022-11-15T17:16:47.039Z,8.10
2022-11-15T17:20:52.935Z,8.20
2022-11-15T17:24:56.821Z,8.20
2022-11-15T17:29:02.689Z,8.20
2022-11-15T17:33:08.650Z,8.20
2022-11-15T17:37:14.334Z,8.20
2022-11-15T17:41:18.713Z,8.20
2022-11-15T17:45:24.691Z,8.20
2022-11-15T17:49:40.032Z,8.20
2022-11-15T17:53:49.379Z,8.20
2022-11-15T17:57:53.818Z,8.20
2022-11-15T18:01:59.486Z,8.20
2022-11-15T18:06:03.577Z,8.10
2022-11-15T18:10:08.006Z,8.00
2022-11-15T18:14:17.288Z,8.10
2022-11-15T18:18:23.575Z,8.00
2022-11-15T18:22:28.629Z,8.00
2022-11-15T18:26:36.764Z,8.10
2022-11-15T18:30:42.130Z,8.00
2022-11-15T18:34:47.388Z,8.10
2022-11-15T18:38:56.228Z,8.10
2022-11-15T18:43:00.173Z,8.10
2022-11-15T18:47:05.863Z,8.20
2022-11-15T18:51:18.497Z,8.20
2022-11-15T18:55:23.888Z,8.10
2022-11-15T18:59:33.022Z,8.10
2022-11-15T19:03:45.735Z,8.00
2022-11-15T19:07:52.277Z,8.10
2022-11-15T19:12:02.171Z,8.20
2022-11-15T19:16:14.319Z,8.10
2022-11-15T19:20:23.359Z,8.10
2022-11-15T19:24:37.678Z,8.00
2022-11-15T19:28:46.298Z,8.00
2022-11-15T19:32:55.195Z,8.00
2022-11-15T19:37:08.343Z,8.00
2022-11-15T19:41:18.921Z,8.10
2022-11-15T19:45:28.996Z,8.10
2022-11-15T19:49:37.105Z,8.10
2022-11-15T19:53:46.114Z,8.00
2022-11-15T19:57:53.086Z,7.90
2022-11-15T20:02:02.005Z,7.90
2022-11-15T20:06:15.041Z,7.90
2022-11-15T20:10:23.535Z,8.00
2022-11-15T20:14:36.739Z,8.00
2022-11-15T20:18:43.219Z,7.90
2022-11-15T20:22:53.990Z,8.00
2022-11-15T20:26:58.504Z,8.00
2022-11-15T20:31:04.664Z,8.00
2022-11-15T20:35:10.290Z,7.90
2022-11-15T20:39:14.366Z,7.90
2022-11-15T20:43:20.553Z,7.90
2022-11-15T20:47:29.264Z,7.90
2022-11-15T20:51:34.045Z,7.90
2022-11-15T20:55:42.318Z,7.90
2022-11-15T20:59:46.330Z,7.90
2022-11-15T21:03:51.318Z,7.90
2022-11-15T21:07:54.679Z,8.00
2022-11-15T21:12:12.321Z,7.90
2022-11-15T21:16:17.199Z,8.00
2022-11-15T21:20:22.236Z,8.00
2022-11-15T21:24:26.086Z,7.90
2022-11-15T21:28:29.522Z,7.80
2022-11-15T21:32:32.862Z,7.80
2022-11-15T21:36:37.635Z,7.80
2022-11-15T21:40:40.936Z,7.80
2022-11-15T21:44:44.247Z,7.90
2022-11-15T21:48:47.579Z,7.80
2022-11-15T21:52:52.237Z,7.70
2022-11-15T21:56:55.583Z,7.70
2022-11-15T22:01:17.031Z,7.80
2022-11-15T22:05:20.352Z,7.80
2022-11-15T22:09:25.054Z,7.80
2022-11-15T22:13:28.442Z,7.80
2022-11-15T22:17:45.590Z,7.70
2022-11-15T22:21:48.870Z,7.80
2022-11-15T22:25:54.042Z,7.80
2022-11-15T22:29:57.381Z,7.80
2022-11-15T22:34:00.693Z,7.80
2022-11-15T22:38:03.996Z,7.80
2022-11-15T22:42:08.738Z,7.70
2022-11-15T22:46:12.490Z,7.70
2022-11-15T22:50:15.896Z,7.70
2022-11-15T22:54:19.258Z,7.70
2022-11-15T22:58:25.483Z,7.70
2022-11-15T23:02:29.082Z,7.80
2022-11-15T23:06:32.437Z,7.70
2022-11-15T23:10:53.092Z,7.80
2022-11-15T23:14:57.769Z,7.80
2022-11-15T23:19:02.588Z,7.70
2022-11-15T23:23:05.885Z,7.80
2022-11-15T23:27:09.566Z,7.80
2022-11-15T23:31:31.692Z,7.70
2022-11-15T23:35:35.114Z,7.60
2022-11-15T23:39:38.508Z,7.60
2022-11-15T23:43:42.357Z,7.80
2022-11-15T23:47:47.103Z,7.80
2022-11-15T23:51:50.524Z,7.70
2022-11-15T23:55:59.125Z,7.70
